sensor_id;sensor_type;location;lat;lon;timestamp;pressure;altitude;pressure_sealevel;temperature;humidity
804;BME280;25687;49.976;8.240;2024-03-29T00:00:25;98250.56;;;4.97;100.00
804;BME280;25687;49.976;8.240;2024-03-29T00:02:50;98254.78;;;4.83;100.00
804;BME280;25687;49.976;8.240;2024-03-29T00:05:15;98259.59;;;4.88;100.00
804;BME280;25687;49.976;8.240;2024-03-29T00:07:41;98238.78;;;4.81;100.00
804;BME280;25687;49.976;8.240;2024-03-29T00:10:06;98218.19;;;4.84;100.00
804;BME280;25687;49.976;8.240;2024-03-29T00:12:31;98215.94;;;4.80;100.00
804;BME280;25687;49.976;8.240;2024-03-29T00:14:57;98217.66;;;4.79;100.00
804;BME280;25687;49.976;8.240;2024-03-29T00:17:22;98233.06;;;4.78;100.00
804;BME280;25687;49.976;8.240;2024-03-29T00:19:47;98205.19;;;4.75;100.00
804;BME280;25687;49.976;8.240;2024-03-29T00:22:13;98214.97;;;4.68;100.00
804;BME280;25687;49.976;8.240;2024-03-29T00:24:38;98207.13;;;4.71;100.00
804;BME280;25687;49.976;8.240;2024-03-29T00:27:03;98203.75;;;4.71;100.00
804;BME280;25687;49.976;8.240;2024-03-29T00:29:29;98199.84;;;4.79;100.00
804;BME280;25687;49.976;8.240;2024-03-29T00:31:55;98202.47;;;4.78;100.00
804;BME280;25687;49.976;8.240;2024-03-29T00:34:20;98204.66;;;4.84;100.00
804;BME280;25687;49.976;8.240;2024-03-29T00:36:45;98202.94;;;4.70;100.00
804;BME280;25687;49.976;8.240;2024-03-29T00:39:10;98205.72;;;4.80;100.00
804;BME280;25687;49.976;8.240;2024-03-29T00:41:36;98206.75;;;4.77;100.00
804;BME280;25687;49.976;8.240;2024-03-29T00:44:02;98204.69;;;4.97;100.00
804;BME280;25687;49.976;8.240;2024-03-29T00:46:28;98209.00;;;4.96;100.00
804;BME280;25687;49.976;8.240;2024-03-29T00:48:53;98200.75;;;5.06;100.00
804;BME280;25687;49.976;8.240;2024-03-29T00:51:18;98170.72;;;5.11;100.00
804;BME280;25687;49.976;8.240;2024-03-29T00:53:44;98176.63;;;5.11;100.00
804;BME280;25687;49.976;8.240;2024-03-29T00:56:09;98175.25;;;5.20;100.00
804;BME280;25687;49.976;8.240;2024-03-29T00:58:34;98179.94;;;5.26;100.00
804;BME280;25687;49.976;8.240;2024-03-29T01:01:00;98182.72;;;5.36;100.00
804;BME280;25687;49.976;8.240;2024-03-29T01:03:25;98179.97;;;5.39;100.00
804;BME280;25687;49.976;8.240;2024-03-29T01:05:53;98182.13;;;5.45;100.00
804;BME280;25687;49.976;8.240;2024-03-29T01:08:19;98178.66;;;5.46;100.00
804;BME280;25687;49.976;8.240;2024-03-29T01:10:44;98174.78;;;5.41;100.00
804;BME280;25687;49.976;8.240;2024-03-29T01:13:10;98178.66;;;5.46;100.00
804;BME280;25687;49.976;8.240;2024-03-29T01:15:35;98185.75;;;5.56;100.00
804;BME280;25687;49.976;8.240;2024-03-29T01:18:00;98190.00;;;5.55;100.00
804;BME280;25687;49.976;8.240;2024-03-29T01:20:25;98179.81;;;5.55;100.00
804;BME280;25687;49.976;8.240;2024-03-29T01:22:50;98185.63;;;5.57;100.00
804;BME280;25687;49.976;8.240;2024-03-29T01:25:16;98164.50;;;5.55;100.00
804;BME280;25687;49.976;8.240;2024-03-29T01:27:42;98163.09;;;5.51;100.00
804;BME280;25687;49.976;8.240;2024-03-29T01:30:08;98168.88;;;5.40;100.00
804;BME280;25687;49.976;8.240;2024-03-29T01:32:33;98149.72;;;5.47;100.00
804;BME280;25687;49.976;8.240;2024-03-29T01:34:58;98138.09;;;5.56;100.00
804;BME280;25687;49.976;8.240;2024-03-29T01:37:24;98131.75;;;5.36;100.00
804;BME280;25687;49.976;8.240;2024-03-29T01:39:49;98131.13;;;5.32;100.00
804;BME280;25687;49.976;8.240;2024-03-29T01:42:14;98123.03;;;5.26;100.00
804;BME280;25687;49.976;8.240;2024-03-29T01:44:40;98131.69;;;5.23;100.00
804;BME280;25687;49.976;8.240;2024-03-29T01:47:05;98142.50;;;5.27;100.00
804;BME280;25687;49.976;8.240;2024-03-29T01:49:31;98134.06;;;5.26;100.00
804;BME280;25687;49.976;8.240;2024-03-29T01:51:57;98137.13;;;5.19;100.00
804;BME280;25687;49.976;8.240;2024-03-29T01:54:22;98121.88;;;5.04;100.00
804;BME280;25687;49.976;8.240;2024-03-29T01:56:48;98125.78;;;5.10;100.00
804;BME280;25687;49.976;8.240;2024-03-29T01:59:14;98124.81;;;4.98;100.00
804;BME280;25687;49.976;8.240;2024-03-29T02:01:41;98131.44;;;5.00;100.00
804;BME280;25687;49.976;8.240;2024-03-29T02:04:08;98146.34;;;5.07;100.00
804;BME280;25687;49.976;8.240;2024-03-29T02:06:34;98153.34;;;5.03;100.00
804;BME280;25687;49.976;8.240;2024-03-29T02:09:00;98153.69;;;5.11;100.00
804;BME280;25687;49.976;8.240;2024-03-29T02:11:25;98146.47;;;5.18;100.00
804;BME280;25687;49.976;8.240;2024-03-29T02:13:51;98156.50;;;5.21;100.00
804;BME280;25687;49.976;8.240;2024-03-29T02:16:17;98174.34;;;5.21;100.00
804;BME280;25687;49.976;8.240;2024-03-29T02:18:42;98181.16;;;5.21;100.00
804;BME280;25687;49.976;8.240;2024-03-29T02:21:08;98190.78;;;5.30;100.00
804;BME280;25687;49.976;8.240;2024-03-29T02:23:36;98175.72;;;5.40;100.00
804;BME280;25687;49.976;8.240;2024-03-29T02:26:02;98175.22;;;5.47;100.00
804;BME280;25687;49.976;8.240;2024-03-29T02:28:28;98154.81;;;5.60;100.00
804;BME280;25687;49.976;8.240;2024-03-29T02:30:53;98154.47;;;5.39;100.00
804;BME280;25687;49.976;8.240;2024-03-29T02:33:21;98174.59;;;5.57;100.00
804;BME280;25687;49.976;8.240;2024-03-29T02:35:46;98164.00;;;5.63;100.00
804;BME280;25687;49.976;8.240;2024-03-29T02:38:11;98166.16;;;5.69;100.00
804;BME280;25687;49.976;8.240;2024-03-29T02:40:36;98159.06;;;5.47;100.00
804;BME280;25687;49.976;8.240;2024-03-29T02:43:02;98169.59;;;5.55;100.00
804;BME280;25687;49.976;8.240;2024-03-29T02:45:27;98165.75;;;5.62;100.00
804;BME280;25687;49.976;8.240;2024-03-29T02:47:53;98133.50;;;5.48;100.00
804;BME280;25687;49.976;8.240;2024-03-29T02:50:18;98119.22;;;5.46;100.00
804;BME280;25687;49.976;8.240;2024-03-29T02:52:43;98115.31;;;5.27;100.00
804;BME280;25687;49.976;8.240;2024-03-29T02:55:09;98109.06;;;5.19;100.00
804;BME280;25687;49.976;8.240;2024-03-29T02:57:36;98104.38;;;5.12;100.00
804;BME280;25687;49.976;8.240;2024-03-29T03:00:02;98128.72;;;5.16;100.00
804;BME280;25687;49.976;8.240;2024-03-29T03:02:28;98128.19;;;5.39;100.00
804;BME280;25687;49.976;8.240;2024-03-29T03:04:53;98137.13;;;5.44;100.00
804;BME280;25687;49.976;8.240;2024-03-29T03:07:19;98186.97;;;5.23;100.00
804;BME280;25687;49.976;8.240;2024-03-29T03:10:03;98184.22;;;5.26;100.00
804;BME280;25687;49.976;8.240;2024-03-29T03:12:47;98190.03;;;5.28;100.00
804;BME280;25687;49.976;8.240;2024-03-29T03:15:12;98198.34;;;5.44;100.00
804;BME280;25687;49.976;8.240;2024-03-29T03:17:37;98179.78;;;5.42;100.00
804;BME280;25687;49.976;8.240;2024-03-29T03:20:03;98170.34;;;5.57;100.00
804;BME280;25687;49.976;8.240;2024-03-29T03:22:31;98163.81;;;5.66;100.00
804;BME280;25687;49.976;8.240;2024-03-29T03:24:57;98165.34;;;5.81;100.00
804;BME280;25687;49.976;8.240;2024-03-29T03:27:22;98161.19;;;5.93;100.00
804;BME280;25687;49.976;8.240;2024-03-29T03:29:48;98179.78;;;5.95;100.00
804;BME280;25687;49.976;8.240;2024-03-29T03:32:13;98188.75;;;5.88;100.00
804;BME280;25687;49.976;8.240;2024-03-29T03:34:39;98170.25;;;5.85;100.00
804;BME280;25687;49.976;8.240;2024-03-29T03:37:04;98164.13;;;5.74;100.00
804;BME280;25687;49.976;8.240;2024-03-29T03:39:29;98157.63;;;5.83;100.00
804;BME280;25687;49.976;8.240;2024-03-29T03:41:55;98164.31;;;5.84;100.00
804;BME280;25687;49.976;8.240;2024-03-29T03:44:20;98166.16;;;5.69;100.00
804;BME280;25687;49.976;8.240;2024-03-29T03:46:47;98178.22;;;5.80;100.00
804;BME280;25687;49.976;8.240;2024-03-29T03:49:12;98166.78;;;5.86;100.00
804;BME280;25687;49.976;8.240;2024-03-29T03:51:37;98168.41;;;5.74;100.00
804;BME280;25687;49.976;8.240;2024-03-29T03:54:02;98184.34;;;5.64;100.00
804;BME280;25687;49.976;8.240;2024-03-29T03:56:28;98181.97;;;5.61;100.00
804;BME280;25687;49.976;8.240;2024-03-29T03:58:53;98186.16;;;5.62;100.00
804;BME280;25687;49.976;8.240;2024-03-29T04:01:18;98185.47;;;5.73;100.00
804;BME280;25687;49.976;8.240;2024-03-29T04:03:44;98171.88;;;5.73;100.00
804;BME280;25687;49.976;8.240;2024-03-29T04:06:09;98164.91;;;5.49;100.00
804;BME280;25687;49.976;8.240;2024-03-29T04:08:34;98147.31;;;5.31;100.00
804;BME280;25687;49.976;8.240;2024-03-29T04:11:03;98151.63;;;5.31;100.00
804;BME280;25687;49.976;8.240;2024-03-29T04:13:29;98140.88;;;5.26;100.00
804;BME280;25687;49.976;8.240;2024-03-29T04:16:03;98135.88;;;5.24;100.00
804;BME280;25687;49.976;8.240;2024-03-29T04:18:29;98146.72;;;5.28;100.00
804;BME280;25687;49.976;8.240;2024-03-29T04:20:58;98149.59;;;5.36;100.00
804;BME280;25687;49.976;8.240;2024-03-29T04:23:24;98156.06;;;5.55;100.00
804;BME280;25687;49.976;8.240;2024-03-29T04:25:55;98164.16;;;5.34;100.00
804;BME280;25687;49.976;8.240;2024-03-29T04:28:24;98161.97;;;5.55;100.00
804;BME280;25687;49.976;8.240;2024-03-29T04:31:00;98155.22;;;5.41;100.00
804;BME280;25687;49.976;8.240;2024-03-29T04:33:26;98141.44;;;5.31;100.00
804;BME280;25687;49.976;8.240;2024-03-29T04:35:56;98139.56;;;5.33;100.00
804;BME280;25687;49.976;8.240;2024-03-29T04:38:21;98143.88;;;5.32;100.00
804;BME280;25687;49.976;8.240;2024-03-29T04:40:51;98124.59;;;5.41;100.00
804;BME280;25687;49.976;8.240;2024-03-29T04:43:17;98125.72;;;5.37;100.00
804;BME280;25687;49.976;8.240;2024-03-29T04:45:45;98114.69;;;5.37;100.00
804;BME280;25687;49.976;8.240;2024-03-29T04:48:11;98111.53;;;5.33;100.00
804;BME280;25687;49.976;8.240;2024-03-29T04:50:36;98124.91;;;5.37;100.00
804;BME280;25687;49.976;8.240;2024-03-29T04:53:02;98128.06;;;5.40;100.00
804;BME280;25687;49.976;8.240;2024-03-29T04:55:27;98130.44;;;5.56;100.00
804;BME280;25687;49.976;8.240;2024-03-29T04:57:52;98133.19;;;5.53;100.00
804;BME280;25687;49.976;8.240;2024-03-29T05:00:18;98138.69;;;5.47;100.00
804;BME280;25687;49.976;8.240;2024-03-29T05:02:43;98144.72;;;5.46;100.00
804;BME280;25687;49.976;8.240;2024-03-29T05:05:08;98137.25;;;5.43;100.00
804;BME280;25687;49.976;8.240;2024-03-29T05:07:34;98131.13;;;5.32;100.00
804;BME280;25687;49.976;8.240;2024-03-29T05:09:59;98134.06;;;5.26;100.00
804;BME280;25687;49.976;8.240;2024-03-29T05:12:25;98133.97;;;5.28;100.00
804;BME280;25687;49.976;8.240;2024-03-29T05:14:50;98131.00;;;5.34;100.00
804;BME280;25687;49.976;8.240;2024-03-29T05:17:15;98132.75;;;5.33;100.00
804;BME280;25687;49.976;8.240;2024-03-29T05:19:42;98132.25;;;5.41;100.00
804;BME280;25687;49.976;8.240;2024-03-29T05:22:08;98131.97;;;5.46;100.00
804;BME280;25687;49.976;8.240;2024-03-29T05:24:33;98135.59;;;5.42;100.00
804;BME280;25687;49.976;8.240;2024-03-29T05:26:58;98128.41;;;5.48;100.00
804;BME280;25687;49.976;8.240;2024-03-29T05:29:24;98124.50;;;5.43;100.00
804;BME280;25687;49.976;8.240;2024-03-29T05:31:49;98132.78;;;5.46;100.00
804;BME280;25687;49.976;8.240;2024-03-29T05:34:14;98142.78;;;5.49;100.00
804;BME280;25687;49.976;8.240;2024-03-29T05:36:39;98151.25;;;5.50;100.00
804;BME280;25687;49.976;8.240;2024-03-29T05:39:05;98149.94;;;5.57;100.00
804;BME280;25687;49.976;8.240;2024-03-29T05:41:30;98154.13;;;5.58;100.00
804;BME280;25687;49.976;8.240;2024-03-29T05:43:57;98160.13;;;5.57;100.00
804;BME280;25687;49.976;8.240;2024-03-29T05:46:22;98172.50;;;5.63;100.00
804;BME280;25687;49.976;8.240;2024-03-29T05:48:47;98164.53;;;5.68;100.00
804;BME280;25687;49.976;8.240;2024-03-29T05:51:13;98170.84;;;5.75;100.00
804;BME280;25687;49.976;8.240;2024-03-29T05:53:38;98173.31;;;5.90;100.00
804;BME280;25687;49.976;8.240;2024-03-29T05:56:04;98168.63;;;5.96;100.00
804;BME280;25687;49.976;8.240;2024-03-29T05:58:29;98168.97;;;6.05;100.00
804;BME280;25687;49.976;8.240;2024-03-29T06:00:54;98179.78;;;6.21;100.00
804;BME280;25687;49.976;8.240;2024-03-29T06:03:20;98184.78;;;6.36;100.00
804;BME280;25687;49.976;8.240;2024-03-29T06:05:45;98192.41;;;6.49;100.00
804;BME280;25687;49.976;8.240;2024-03-29T06:08:11;98197.09;;;6.55;100.00
804;BME280;25687;49.976;8.240;2024-03-29T06:10:36;98200.41;;;6.44;100.00
804;BME280;25687;49.976;8.240;2024-03-29T06:13:02;98195.75;;;6.62;100.00
804;BME280;25687;49.976;8.240;2024-03-29T06:15:33;98193.28;;;6.73;100.00
804;BME280;25687;49.976;8.240;2024-03-29T06:18:17;98203.41;;;6.75;100.00
804;BME280;25687;49.976;8.240;2024-03-29T06:20:44;98199.22;;;6.74;100.00
804;BME280;25687;49.976;8.240;2024-03-29T06:23:09;98200.81;;;6.88;100.00
804;BME280;25687;49.976;8.240;2024-03-29T06:25:34;98194.91;;;6.74;100.00
804;BME280;25687;49.976;8.240;2024-03-29T06:28:00;98190.03;;;6.71;100.00
804;BME280;25687;49.976;8.240;2024-03-29T06:30:25;98182.69;;;6.67;100.00
804;BME280;25687;49.976;8.240;2024-03-29T06:32:50;98194.22;;;6.59;100.00
804;BME280;25687;49.976;8.240;2024-03-29T06:35:16;98198.44;;;6.60;100.00
804;BME280;25687;49.976;8.240;2024-03-29T06:37:41;98199.84;;;6.65;100.00
804;BME280;25687;49.976;8.240;2024-03-29T06:40:08;98196.56;;;6.75;100.00
804;BME280;25687;49.976;8.240;2024-03-29T06:42:33;98200.84;;;6.75;100.00
804;BME280;25687;49.976;8.240;2024-03-29T06:44:58;98194.53;;;6.68;100.00
804;BME280;25687;49.976;8.240;2024-03-29T06:47:24;98185.44;;;6.63;100.00
804;BME280;25687;49.976;8.240;2024-03-29T06:49:50;98196.16;;;6.69;100.00
804;BME280;25687;49.976;8.240;2024-03-29T06:52:15;98207.69;;;6.74;100.00
804;BME280;25687;49.976;8.240;2024-03-29T06:54:40;98203.19;;;6.78;100.00
804;BME280;25687;49.976;8.240;2024-03-29T06:57:06;98194.47;;;6.93;100.00
804;BME280;25687;49.976;8.240;2024-03-29T06:59:31;98193.09;;;7.01;100.00
804;BME280;25687;49.976;8.240;2024-03-29T07:01:56;98194.53;;;7.05;100.00
804;BME280;25687;49.976;8.240;2024-03-29T07:04:22;98192.44;;;7.10;100.00
804;BME280;25687;49.976;8.240;2024-03-29T07:06:48;98200.28;;;7.20;100.00
804;BME280;25687;49.976;8.240;2024-03-29T07:09:20;98205.34;;;7.33;100.00
804;BME280;25687;49.976;8.240;2024-03-29T07:11:46;98198.38;;;7.35;100.00
804;BME280;25687;49.976;8.240;2024-03-29T07:14:12;98196.56;;;7.48;100.00
804;BME280;25687;49.976;8.240;2024-03-29T07:16:38;98211.09;;;7.48;100.00
804;BME280;25687;49.976;8.240;2024-03-29T07:19:03;98198.69;;;7.54;100.00
804;BME280;25687;49.976;8.240;2024-03-29T07:21:28;98202.16;;;7.53;100.00
804;BME280;25687;49.976;8.240;2024-03-29T07:23:53;98199.63;;;7.53;100.00
804;BME280;25687;49.976;8.240;2024-03-29T07:26:19;98195.25;;;7.67;100.00
804;BME280;25687;49.976;8.240;2024-03-29T07:28:44;98191.41;;;7.84;100.00
804;BME280;25687;49.976;8.240;2024-03-29T07:31:09;98196.66;;;7.82;100.00
804;BME280;25687;49.976;8.240;2024-03-29T07:33:36;98192.88;;;8.22;100.00
804;BME280;25687;49.976;8.240;2024-03-29T07:36:01;98185.44;;;8.19;100.00
804;BME280;25687;49.976;8.240;2024-03-29T07:38:28;98185.06;;;8.23;100.00
804;BME280;25687;49.976;8.240;2024-03-29T07:40:54;98190.09;;;8.25;100.00
804;BME280;25687;49.976;8.240;2024-03-29T07:43:21;98186.81;;;8.46;100.00
804;BME280;25687;49.976;8.240;2024-03-29T07:45:46;98169.47;;;8.27;100.00
804;BME280;25687;49.976;8.240;2024-03-29T07:48:14;98183.00;;;8.29;100.00
804;BME280;25687;49.976;8.240;2024-03-29T07:50:43;98176.44;;;8.36;100.00
804;BME280;25687;49.976;8.240;2024-03-29T07:53:09;98186.47;;;8.39;100.00
804;BME280;25687;49.976;8.240;2024-03-29T07:55:38;98177.97;;;8.16;100.00
804;BME280;25687;49.976;8.240;2024-03-29T07:58:05;98182.81;;;7.85;100.00
804;BME280;25687;49.976;8.240;2024-03-29T08:00:33;98179.03;;;7.55;100.00
804;BME280;25687;49.976;8.240;2024-03-29T08:02:59;98187.34;;;7.81;100.00
804;BME280;25687;49.976;8.240;2024-03-29T08:05:24;98187.59;;;7.78;100.00
804;BME280;25687;49.976;8.240;2024-03-29T08:07:50;98195.97;;;7.80;100.00
804;BME280;25687;49.976;8.240;2024-03-29T08:10:15;98197.13;;;7.87;100.00
804;BME280;25687;49.976;8.240;2024-03-29T08:12:40;98205.88;;;7.96;100.00
804;BME280;25687;49.976;8.240;2024-03-29T08:15:06;98203.22;;;7.86;100.00
804;BME280;25687;49.976;8.240;2024-03-29T08:17:32;98204.28;;;8.06;100.00
804;BME280;25687;49.976;8.240;2024-03-29T08:19:58;98212.69;;;8.20;100.00
804;BME280;25687;49.976;8.240;2024-03-29T08:22:23;98216.50;;;8.26;100.00
804;BME280;25687;49.976;8.240;2024-03-29T08:24:48;98223.84;;;8.19;100.00
804;BME280;25687;49.976;8.240;2024-03-29T08:27:13;98218.03;;;8.17;100.00
804;BME280;25687;49.976;8.240;2024-03-29T08:29:42;98218.81;;;8.06;100.00
804;BME280;25687;49.976;8.240;2024-03-29T08:32:07;98227.66;;;8.02;100.00
804;BME280;25687;49.976;8.240;2024-03-29T08:34:34;98226.00;;;7.89;100.00
804;BME280;25687;49.976;8.240;2024-03-29T08:37:01;98225.72;;;7.70;100.00
804;BME280;25687;49.976;8.240;2024-03-29T08:39:28;98225.16;;;7.78;100.00
804;BME280;25687;49.976;8.240;2024-03-29T08:41:53;98225.31;;;7.99;100.00
804;BME280;25687;49.976;8.240;2024-03-29T08:44:18;98231.53;;;8.07;100.00
804;BME280;25687;49.976;8.240;2024-03-29T08:46:44;98234.66;;;8.11;100.00
804;BME280;25687;49.976;8.240;2024-03-29T08:49:09;98238.28;;;8.20;100.00
804;BME280;25687;49.976;8.240;2024-03-29T08:51:34;98237.59;;;8.29;100.00
804;BME280;25687;49.976;8.240;2024-03-29T08:53:59;98234.31;;;8.27;100.00
804;BME280;25687;49.976;8.240;2024-03-29T08:56:29;98258.09;;;8.29;100.00
804;BME280;25687;49.976;8.240;2024-03-29T08:58:55;98257.28;;;8.40;100.00
804;BME280;25687;49.976;8.240;2024-03-29T09:01:20;98272.69;;;8.51;100.00
804;BME280;25687;49.976;8.240;2024-03-29T09:03:45;98271.66;;;8.54;100.00
804;BME280;25687;49.976;8.240;2024-03-29T09:06:10;98278.25;;;8.45;100.00
804;BME280;25687;49.976;8.240;2024-03-29T09:08:36;98283.84;;;8.39;100.00
804;BME280;25687;49.976;8.240;2024-03-29T09:11:01;98294.75;;;8.30;100.00
804;BME280;25687;49.976;8.240;2024-03-29T09:13:30;98298.38;;;8.27;100.00
804;BME280;25687;49.976;8.240;2024-03-29T09:15:55;98296.94;;;8.12;100.00
804;BME280;25687;49.976;8.240;2024-03-29T09:18:21;98297.25;;;7.96;100.00
804;BME280;25687;49.976;8.240;2024-03-29T09:20:58;98300.97;;;7.91;100.00
804;BME280;25687;49.976;8.240;2024-03-29T09:23:25;98309.69;;;7.89;100.00
804;BME280;25687;49.976;8.240;2024-03-29T09:25:50;98302.25;;;7.97;100.00
804;BME280;25687;49.976;8.240;2024-03-29T09:28:16;98311.59;;;7.74;100.00
804;BME280;25687;49.976;8.240;2024-03-29T09:30:41;98315.69;;;7.77;100.00
804;BME280;25687;49.976;8.240;2024-03-29T09:33:06;98318.06;;;7.67;100.00
804;BME280;25687;49.976;8.240;2024-03-29T09:35:34;98321.44;;;7.67;100.00
804;BME280;25687;49.976;8.240;2024-03-29T09:37:59;98319.38;;;7.72;100.00
804;BME280;25687;49.976;8.240;2024-03-29T09:40:26;98324.94;;;7.90;100.00
804;BME280;25687;49.976;8.240;2024-03-29T09:42:52;98319.56;;;7.94;100.00
804;BME280;25687;49.976;8.240;2024-03-29T09:45:20;98312.38;;;7.99;100.00
804;BME280;25687;49.976;8.240;2024-03-29T09:47:46;98318.84;;;8.27;100.00
804;BME280;25687;49.976;8.240;2024-03-29T09:50:12;98326.09;;;8.33;100.00
804;BME280;25687;49.976;8.240;2024-03-29T09:52:39;98319.59;;;8.40;100.00
804;BME280;25687;49.976;8.240;2024-03-29T09:55:06;98323.50;;;8.58;100.00
804;BME280;25687;49.976;8.240;2024-03-29T09:57:32;98327.94;;;8.78;100.00
804;BME280;25687;49.976;8.240;2024-03-29T09:59:57;98325.16;;;8.81;100.00
804;BME280;25687;49.976;8.240;2024-03-29T10:02:27;98328.63;;;8.92;100.00
804;BME280;25687;49.976;8.240;2024-03-29T10:04:53;98327.69;;;9.04;100.00
804;BME280;25687;49.976;8.240;2024-03-29T10:07:21;98321.78;;;8.81;100.00
804;BME280;25687;49.976;8.240;2024-03-29T10:09:47;98328.88;;;9.00;100.00
804;BME280;25687;49.976;8.240;2024-03-29T10:12:12;98328.75;;;9.13;100.00
804;BME280;25687;49.976;8.240;2024-03-29T10:14:47;98335.41;;;8.81;100.00
804;BME280;25687;49.976;8.240;2024-03-29T10:17:18;98325.94;;;8.82;100.00
804;BME280;25687;49.976;8.240;2024-03-29T10:19:45;98322.47;;;8.71;100.00
804;BME280;25687;49.976;8.240;2024-03-29T10:22:10;98315.59;;;8.72;100.00
804;BME280;25687;49.976;8.240;2024-03-29T10:24:36;98326.66;;;8.84;100.00
804;BME280;25687;49.976;8.240;2024-03-29T10:27:02;98320.00;;;9.04;100.00
804;BME280;25687;49.976;8.240;2024-03-29T10:29:28;98312.06;;;9.18;100.00
804;BME280;25687;49.976;8.240;2024-03-29T10:31:55;98314.59;;;9.41;100.00
804;BME280;25687;49.976;8.240;2024-03-29T10:34:21;98307.03;;;9.28;100.00
804;BME280;25687;49.976;8.240;2024-03-29T10:36:47;98309.72;;;9.38;100.00
804;BME280;25687;49.976;8.240;2024-03-29T10:39:12;98307.69;;;9.53;100.00
804;BME280;25687;49.976;8.240;2024-03-29T10:41:41;98303.22;;;9.66;100.00
804;BME280;25687;49.976;8.240;2024-03-29T10:44:11;98298.97;;;9.44;100.00
804;BME280;25687;49.976;8.240;2024-03-29T10:46:38;98288.16;;;9.29;100.00
804;BME280;25687;49.976;8.240;2024-03-29T10:49:06;98283.75;;;9.52;100.00
804;BME280;25687;49.976;8.240;2024-03-29T10:51:37;98293.03;;;9.65;100.00
804;BME280;25687;49.976;8.240;2024-03-29T10:54:03;98277.22;;;9.81;100.00
804;BME280;25687;49.976;8.240;2024-03-29T10:56:30;98281.34;;;9.72;100.00
804;BME280;25687;49.976;8.240;2024-03-29T10:59:02;98289.97;;;9.82;100.00
804;BME280;25687;49.976;8.240;2024-03-29T11:01:32;98282.72;;;10.09;100.00
804;BME280;25687;49.976;8.240;2024-03-29T11:04:02;98284.28;;;10.00;100.00
804;BME280;25687;49.976;8.240;2024-03-29T11:06:30;98282.88;;;9.96;100.00
804;BME280;25687;49.976;8.240;2024-03-29T11:08:58;98271.56;;;10.41;100.00
804;BME280;25687;49.976;8.240;2024-03-29T11:11:25;98265.44;;;11.04;100.00
804;BME280;25687;49.976;8.240;2024-03-29T11:14:03;98265.16;;;10.97;100.00
804;BME280;25687;49.976;8.240;2024-03-29T11:16:31;98261.69;;;11.37;100.00
804;BME280;25687;49.976;8.240;2024-03-29T11:18:56;98268.41;;;10.99;100.00
804;BME280;25687;49.976;8.240;2024-03-29T11:21:22;98271.44;;;10.73;100.00
804;BME280;25687;49.976;8.240;2024-03-29T11:23:53;98274.13;;;11.03;100.00
804;BME280;25687;49.976;8.240;2024-03-29T11:26:19;98288.88;;;10.70;100.00
804;BME280;25687;49.976;8.240;2024-03-29T11:28:49;98306.97;;;10.89;100.00
804;BME280;25687;49.976;8.240;2024-03-29T11:31:15;98318.44;;;10.85;100.00
804;BME280;25687;49.976;8.240;2024-03-29T11:38:47;98346.88;;;10.84;100.00
804;BME280;25687;49.976;8.240;2024-03-29T11:41:22;98344.31;;;10.84;100.00
804;BME280;25687;49.976;8.240;2024-03-29T11:43:49;98338.78;;;10.88;100.00
804;BME280;25687;49.976;8.240;2024-03-29T11:46:15;98332.34;;;10.73;100.00
804;BME280;25687;49.976;8.240;2024-03-29T11:48:41;98327.50;;;10.79;100.00
804;BME280;25687;49.976;8.240;2024-03-29T11:51:09;98310.31;;;10.80;100.00
804;BME280;25687;49.976;8.240;2024-03-29T11:53:36;98319.47;;;11.04;100.00
804;BME280;25687;49.976;8.240;2024-03-29T11:56:03;98321.28;;;11.23;100.00
804;BME280;25687;49.976;8.240;2024-03-29T11:58:30;98324.41;;;11.17;100.00
804;BME280;25687;49.976;8.240;2024-03-29T12:00:57;98344.63;;;11.00;100.00
804;BME280;25687;49.976;8.240;2024-03-29T12:03:25;98347.38;;;11.08;100.00
804;BME280;25687;49.976;8.240;2024-03-29T12:05:52;98346.69;;;10.96;100.00
804;BME280;25687;49.976;8.240;2024-03-29T12:08:27;98333.91;;;10.95;100.00
804;BME280;25687;49.976;8.240;2024-03-29T12:10:52;98330.78;;;10.91;100.00
804;BME280;25687;49.976;8.240;2024-03-29T12:13:18;98341.16;;;10.80;100.00
804;BME280;25687;49.976;8.240;2024-03-29T12:15:44;98338.72;;;10.78;100.00
804;BME280;25687;49.976;8.240;2024-03-29T12:18:09;98328.88;;;10.84;100.00
804;BME280;25687;49.976;8.240;2024-03-29T12:20:36;98321.84;;;10.86;100.00
804;BME280;25687;49.976;8.240;2024-03-29T12:23:09;98312.31;;;10.76;100.00
804;BME280;25687;49.976;8.240;2024-03-29T12:25:36;98303.53;;;10.79;100.00
804;BME280;25687;49.976;8.240;2024-03-29T12:28:05;98302.63;;;10.59;100.00
804;BME280;25687;49.976;8.240;2024-03-29T12:30:32;98326.34;;;10.62;100.00
804;BME280;25687;49.976;8.240;2024-03-29T12:33:01;98330.69;;;10.62;100.00
804;BME280;25687;49.976;8.240;2024-03-29T12:35:28;98340.44;;;10.68;100.00
804;BME280;25687;49.976;8.240;2024-03-29T12:37:54;98353.50;;;10.55;100.00
804;BME280;25687;49.976;8.240;2024-03-29T12:40:21;98357.31;;;10.61;100.00
804;BME280;25687;49.976;8.240;2024-03-29T12:42:50;98353.75;;;10.73;100.00
804;BME280;25687;49.976;8.240;2024-03-29T12:45:17;98361.59;;;10.72;100.00
804;BME280;25687;49.976;8.240;2024-03-29T12:47:43;98375.72;;;10.87;100.00
804;BME280;25687;49.976;8.240;2024-03-29T12:50:09;98379.25;;;10.86;100.00
804;BME280;25687;49.976;8.240;2024-03-29T12:52:41;98380.59;;;11.11;100.00
804;BME280;25687;49.976;8.240;2024-03-29T12:55:07;98386.63;;;11.32;100.00
804;BME280;25687;49.976;8.240;2024-03-29T12:57:42;98393.50;;;11.21;100.00
804;BME280;25687;49.976;8.240;2024-03-29T13:00:10;98389.56;;;11.27;100.00
804;BME280;25687;49.976;8.240;2024-03-29T13:02:36;98400.56;;;11.29;100.00
804;BME280;25687;49.976;8.240;2024-03-29T13:05:03;98390.16;;;11.40;100.00
804;BME280;25687;49.976;8.240;2024-03-29T13:07:29;98385.44;;;11.45;100.00
804;BME280;25687;49.976;8.240;2024-03-29T13:09:55;98400.66;;;11.68;100.00
804;BME280;25687;49.976;8.240;2024-03-29T13:12:20;98396.31;;;11.59;100.00
804;BME280;25687;49.976;8.240;2024-03-29T13:14:46;98393.63;;;11.70;100.00
804;BME280;25687;49.976;8.240;2024-03-29T13:17:11;98394.84;;;11.66;100.00
804;BME280;25687;49.976;8.240;2024-03-29T13:19:36;98379.38;;;11.66;100.00